Bahrah, Saudi Arabia
Current Conditions -  °F | °C
As of 7:00 PM on Thursday 30 Oct 2014 (Local Time) from OEMK Reporting Station
Clear Clear  
Wind Chill: 90°   Ceiling: Unl
Heat Index: 92°   Visibility: 6mi
Dew Point: 66°   Wind: 2mph
Humidity: 46%   Direction: 300°WNW
Pressure: 29.83"   Gusts: NA
Location:  21.4°N, 39.49°E
Report Text: OEMK 301600Z 30002KT CAVOK 32/19 Q1010
Loading
Personal Weather Stations






























Interactive Weather Map
Tropical Storm Tracking
New forecast layout! Learn more

10-Day Weather Forecast

Advertisements
Track Severe Weather on mobile